createdAt,value
2022-09-24T00:00:53.639Z,66.10
2022-09-24T00:03:24.255Z,66.10
2022-09-24T00:05:51.467Z,66.80
2022-09-24T00:08:18.649Z,66.50
2022-09-24T00:10:45.913Z,66.60
2022-09-24T00:13:14.002Z,66.50
2022-09-24T00:15:42.161Z,66.40
2022-09-24T00:18:11.763Z,66.40
2022-09-24T00:20:40.824Z,66.50
2022-09-24T00:23:07.990Z,66.50
2022-09-24T00:25:58.364Z,66.50
2022-09-24T00:28:25.216Z,66.30
2022-09-24T00:30:53.694Z,66.30
2022-09-24T00:33:21.317Z,66.40
2022-09-24T00:35:48.187Z,66.70
2022-09-24T00:38:15.600Z,66.70
2022-09-24T00:40:42.793Z,66.70
2022-09-24T00:43:27.978Z,66.70
2022-09-24T00:46:08.912Z,66.50
2022-09-24T00:48:37.284Z,66.60
2022-09-24T00:51:04.279Z,67.10
2022-09-24T00:53:33.581Z,67.50
2022-09-24T00:56:01.144Z,67.30
2022-09-24T00:58:28.611Z,67.30
2022-09-24T01:00:57.875Z,67.50
2022-09-24T01:03:25.809Z,67.40
2022-09-24T01:05:52.745Z,67.60
2022-09-24T01:08:19.861Z,67.70
2022-09-24T01:10:49.405Z,67.70
2022-09-24T01:13:30.236Z,67.90
2022-09-24T01:15:59.788Z,67.90
2022-09-24T01:18:38.475Z,68.40
2022-09-24T01:21:25.622Z,67.60
2022-09-24T01:24:14.334Z,67.60
2022-09-24T01:26:48.483Z,67.70
2022-09-24T01:29:48.278Z,67.80
2022-09-24T01:32:26.757Z,67.70
2022-09-24T01:34:58.648Z,67.50
2022-09-24T01:37:26.255Z,67.50
2022-09-24T01:39:53.552Z,67.40
2022-09-24T01:42:21.073Z,67.40
2022-09-24T01:44:48.152Z,67.40
2022-09-24T01:47:18.627Z,67.40
2022-09-24T01:49:46.311Z,67.60
2022-09-24T01:52:13.646Z,67.60
2022-09-24T01:54:41.794Z,67.80
2022-09-24T01:57:14.656Z,68.10
2022-09-24T01:59:41.775Z,68.10
2022-09-24T02:02:09.265Z,68.30
2022-09-24T02:04:38.458Z,68.30
2022-09-24T02:07:06.991Z,68.30
2022-09-24T02:09:40.998Z,68.20
2022-09-24T02:12:29.865Z,68.00
2022-09-24T02:14:58.536Z,67.80
2022-09-24T02:17:25.972Z,67.90
2022-09-24T02:19:52.790Z,67.80
2022-09-24T02:22:19.788Z,67.70
2022-09-24T02:24:50.544Z,67.70
2022-09-24T02:27:23.795Z,67.80
2022-09-24T02:29:50.631Z,67.90
2022-09-24T02:32:18.481Z,68.20
2022-09-24T02:34:47.393Z,68.20
2022-09-24T02:37:14.538Z,68.20
2022-09-24T02:39:41.673Z,68.20
2022-09-24T02:42:09.600Z,68.10
2022-09-24T02:44:36.539Z,68.20
2022-09-24T02:47:03.447Z,68.20
2022-09-24T02:49:30.361Z,68.20
2022-09-24T02:51:57.718Z,68.40
2022-09-24T02:54:25.348Z,68.50
2022-09-24T02:56:52.670Z,68.50
2022-09-24T02:59:19.550Z,68.50
2022-09-24T03:01:46.876Z,68.50
2022-09-24T03:04:14.575Z,68.40
2022-09-24T03:06:42.462Z,68.30
2022-09-24T03:09:12.005Z,68.40
2022-09-24T03:11:39.092Z,68.60
2022-09-24T03:14:06.094Z,68.70
2022-09-24T03:16:33.832Z,68.60
2022-09-24T03:19:00.955Z,68.60
2022-09-24T03:21:27.868Z,68.60
2022-09-24T03:23:59.123Z,68.80
2022-09-24T03:26:26.364Z,68.70
2022-09-24T03:28:53.283Z,68.90
2022-09-24T03:31:20.186Z,68.50
2022-09-24T03:33:47.829Z,68.60
2022-09-24T03:36:22.824Z,68.50
2022-09-24T03:38:50.222Z,68.80
2022-09-24T03:41:17.223Z,68.90
2022-09-24T03:43:44.202Z,68.80
2022-09-24T03:46:11.828Z,68.70
2022-09-24T03:48:39.641Z,68.70
2022-09-24T03:51:07.297Z,68.80
2022-09-24T03:53:35.420Z,69.10
2022-09-24T03:56:06.602Z,69.10
2022-09-24T03:58:36.387Z,69.00
2022-09-24T04:01:03.348Z,69.20
2022-09-24T04:03:30.381Z,69.10
2022-09-24T04:05:57.330Z,69.00
2022-09-24T04:08:24.574Z,68.90
2022-09-24T04:10:51.495Z,68.90
2022-09-24T04:13:18.794Z,68.90
2022-09-24T04:15:45.913Z,68.90
2022-09-24T04:18:12.974Z,68.80
2022-09-24T04:20:40.167Z,68.60
2022-09-24T04:23:07.136Z,68.70
2022-09-24T04:25:34.017Z,68.90
2022-09-24T04:28:02.527Z,68.90
2022-09-24T04:30:29.754Z,69.10
2022-09-24T04:33:00.207Z,69.20
2022-09-24T04:35:28.137Z,69.10
2022-09-24T04:37:56.292Z,69.30
2022-09-24T04:40:23.316Z,69.30
2022-09-24T04:42:50.564Z,69.10
2022-09-24T04:45:23.844Z,68.90
2022-09-24T04:47:57.997Z,68.80
2022-09-24T04:50:44.787Z,68.90
2022-09-24T04:53:16.355Z,69.20
2022-09-24T04:55:43.995Z,69.00
2022-09-24T04:58:11.574Z,68.90
2022-09-24T05:00:53.269Z,68.80
2022-09-24T05:03:23.072Z,68.60
2022-09-24T05:05:53.065Z,68.40
2022-09-24T05:08:20.724Z,68.60
2022-09-24T05:10:47.932Z,68.60
2022-09-24T05:13:15.024Z,68.60
2022-09-24T05:15:43.355Z,68.50
2022-09-24T05:18:12.838Z,68.70
2022-09-24T05:20:40.064Z,68.60
2022-09-24T05:23:07.833Z,68.60
2022-09-24T05:25:55.361Z,68.20
2022-09-24T05:28:23.068Z,67.90
2022-09-24T05:30:50.327Z,67.60
2022-09-24T05:33:17.520Z,67.30
2022-09-24T05:35:47.824Z,67.20
2022-09-24T05:38:14.990Z,67.00
2022-09-24T05:40:49.173Z,66.80
2022-09-24T05:43:16.856Z,66.30
2022-09-24T05:45:47.003Z,65.50
2022-09-24T05:48:14.072Z,64.70
2022-09-24T05:50:41.070Z,65.10
2022-09-24T05:53:12.262Z,64.90
2022-09-24T05:55:39.221Z,64.60
2022-09-24T05:58:07.538Z,64.20
2022-09-24T06:00:35.942Z,63.70
2022-09-24T06:03:08.251Z,63.60
2022-09-24T06:05:36.924Z,63.70
2022-09-24T06:08:04.286Z,63.80
2022-09-24T06:10:31.517Z,63.90
2022-09-24T06:12:58.769Z,63.90
2022-09-24T06:15:27.466Z,63.80
2022-09-24T06:17:55.807Z,63.40
2022-09-24T06:20:24.083Z,63.20
2022-09-24T06:22:51.641Z,63.10
2022-09-24T06:25:22.548Z,62.70
2022-09-24T06:28:00.797Z,62.50
2022-09-24T06:30:28.628Z,62.30
2022-09-24T06:32:55.736Z,62.20
2022-09-24T06:35:23.089Z,61.90
2022-09-24T06:37:50.158Z,61.80
2022-09-24T06:40:19.869Z,61.60
2022-09-24T06:42:51.169Z,61.70
2022-09-24T06:45:18.192Z,61.60
2022-09-24T06:47:46.223Z,61.40
2022-09-24T06:50:13.226Z,61.30
2022-09-24T06:52:40.238Z,60.60
2022-09-24T06:55:09.938Z,59.30
2022-09-24T06:57:37.365Z,57.40
2022-09-24T07:00:04.766Z,54.70
2022-09-24T07:02:31.795Z,51.90
2022-09-24T07:04:58.691Z,50.30
2022-09-24T07:07:34.616Z,47.80
2022-09-24T07:10:06.000Z,46.10
2022-09-24T07:12:33.718Z,44.50
2022-09-24T07:15:00.651Z,43.90
2022-09-24T07:17:31.431Z,43.40
2022-09-24T07:20:00.803Z,41.80
2022-09-24T07:22:27.982Z,40.80
2022-09-24T07:24:56.159Z,40.20
2022-09-24T07:27:23.398Z,38.70
2022-09-24T07:29:50.346Z,37.90
2022-09-24T07:32:20.248Z,37.20
2022-09-24T07:34:47.299Z,35.70
2022-09-24T07:37:17.287Z,34.80
2022-09-24T07:39:45.837Z,34.80
2022-09-24T07:42:12.981Z,34.60
2022-09-24T07:44:40.503Z,33.30
2022-09-24T07:47:11.016Z,33.10
2022-09-24T07:49:43.937Z,32.70
2022-09-24T07:52:11.698Z,32.70
2022-09-24T07:54:38.720Z,31.50
2022-09-24T07:57:11.236Z,30.40
2022-09-24T07:59:38.443Z,29.40
2022-09-24T08:02:09.422Z,28.80
2022-09-24T08:04:36.523Z,28.10
2022-09-24T08:07:03.648Z,27.80
2022-09-24T08:09:33.795Z,27.10
2022-09-24T08:12:03.172Z,26.90
2022-09-24T08:14:30.150Z,27.00
2022-09-24T08:16:57.265Z,26.90
2022-09-24T08:19:25.342Z,26.80
2022-09-24T08:21:52.464Z,26.50
2022-09-24T08:24:19.349Z,26.00
2022-09-24T08:26:49.652Z,26.10
2022-09-24T08:29:17.390Z,25.80
2022-09-24T08:31:44.354Z,25.40
2022-09-24T08:34:11.288Z,25.20
2022-09-24T08:36:42.632Z,25.30
2022-09-24T08:39:10.674Z,24.80
2022-09-24T08:41:38.127Z,24.50
2022-09-24T08:44:36.919Z,24.50
2022-09-24T08:47:22.751Z,24.20
2022-09-24T08:49:52.355Z,23.60
2022-09-24T08:52:19.470Z,24.30
2022-09-24T08:54:47.740Z,25.50
2022-09-24T08:57:16.212Z,26.50
2022-09-24T08:59:44.366Z,27.70
2022-09-24T09:02:13.869Z,28.90
2022-09-24T09:04:45.826Z,29.20
2022-09-24T09:07:22.950Z,29.60
2022-09-24T09:09:54.770Z,29.70
2022-09-24T09:12:34.008Z,30.10
2022-09-24T09:15:06.842Z,29.90
2022-09-24T09:17:37.030Z,29.60
2022-09-24T09:20:11.201Z,28.90
2022-09-24T09:22:40.336Z,28.90
2022-09-24T09:25:15.962Z,28.70
2022-09-24T09:27:42.863Z,28.30
2022-09-24T09:30:14.427Z,27.80
2022-09-24T09:32:41.384Z,27.40
2022-09-24T09:35:23.559Z,27.00
2022-09-24T10:49:06.522Z,23.10
2022-09-24T10:51:44.140Z,23.20
2022-09-24T10:54:20.400Z,23.30
2022-09-24T10:56:52.668Z,23.20
2022-09-24T10:59:35.099Z,23.00
2022-09-24T11:02:22.265Z,22.60
2022-09-24T11:04:55.130Z,22.50
2022-09-24T11:07:37.634Z,22.50
2022-09-24T11:10:10.001Z,22.30
2022-09-24T11:13:04.644Z,22.20
2022-09-24T11:16:06.101Z,22.50
2022-09-24T11:18:51.576Z,22.50
2022-09-24T11:21:37.311Z,22.00
2022-09-24T11:24:09.060Z,21.90
2022-09-24T11:26:47.797Z,21.00
2022-09-24T11:29:37.235Z,21.10
2022-09-24T11:32:09.999Z,21.10
2022-09-24T11:34:50.773Z,21.20
2022-09-24T11:37:39.385Z,21.10
2022-09-24T11:40:16.571Z,21.00
2022-09-24T11:43:09.573Z,20.90
2022-09-24T11:45:42.323Z,20.70
2022-09-24T11:48:18.842Z,20.80
2022-09-24T11:50:54.629Z,21.00
2022-09-24T11:53:28.406Z,20.30
2022-09-24T11:55:56.841Z,20.50
2022-09-24T11:58:35.624Z,21.00
2022-09-24T12:01:07.414Z,20.60
2022-09-24T12:03:42.533Z,21.10
2022-09-24T12:06:13.977Z,21.70
2022-09-24T12:08:49.333Z,21.50
2022-09-24T12:11:18.722Z,21.40
2022-09-24T12:13:47.160Z,21.00
2022-09-24T12:16:18.210Z,20.90
2022-09-24T12:18:45.423Z,20.40
2022-09-24T12:21:13.773Z,20.70
2022-09-24T12:23:41.847Z,20.40
2022-09-24T12:26:08.772Z,21.20
2022-09-24T12:29:15.573Z,19.90
2022-09-24T12:32:08.038Z,20.00
2022-09-24T12:34:38.475Z,20.40
2022-09-24T12:37:10.700Z,20.30
2022-09-24T12:39:53.249Z,20.40
2022-09-24T12:42:20.598Z,20.10
2022-09-24T12:44:51.637Z,20.30
2022-09-24T12:47:25.847Z,20.30
2022-09-24T12:49:55.264Z,20.40
2022-09-24T12:52:33.115Z,20.50
2022-09-24T12:55:02.507Z,20.40
2022-09-24T12:57:36.763Z,20.60
2022-09-24T13:00:09.052Z,21.00
2022-09-24T13:02:47.158Z,21.00
2022-09-24T13:05:14.386Z,20.60
2022-09-24T13:07:41.404Z,21.00
2022-09-24T13:10:17.641Z,20.80
2022-09-24T13:12:45.093Z,20.50
2022-09-24T13:15:19.706Z,20.30
2022-09-24T13:17:47.553Z,20.70
2022-09-24T13:20:19.160Z,20.90
2022-09-24T13:22:54.801Z,20.90
2022-09-24T13:25:23.312Z,21.20
2022-09-24T13:27:59.485Z,21.30
2022-09-24T13:30:29.388Z,21.30
2022-09-24T13:33:00.495Z,21.30
2022-09-24T13:35:29.429Z,20.90
2022-09-24T13:37:59.458Z,21.20
2022-09-24T13:40:27.699Z,21.30
2022-09-24T13:43:04.267Z,21.30
2022-09-24T13:45:31.277Z,21.50
2022-09-24T13:47:59.569Z,22.00
2022-09-24T13:50:27.898Z,22.00
2022-09-24T13:52:56.241Z,22.20
2022-09-24T13:55:24.637Z,22.50
2022-09-24T13:57:56.613Z,23.50
2022-09-24T14:00:27.727Z,24.30
2022-09-24T14:03:05.298Z,24.70
2022-09-24T14:05:35.706Z,23.70
2022-09-24T14:08:09.731Z,23.90
2022-09-24T14:10:36.692Z,24.00
2022-09-24T14:13:12.616Z,24.30
2022-09-24T14:15:49.815Z,24.20
2022-09-24T14:18:19.182Z,25.10
2022-09-24T14:20:53.500Z,25.10
2022-09-24T14:23:21.426Z,24.80
2022-09-24T14:25:52.460Z,25.10
2022-09-24T14:28:19.849Z,25.60
2022-09-24T14:30:53.667Z,26.80
2022-09-24T14:33:21.593Z,27.00
2022-09-24T14:35:53.045Z,26.80
2022-09-24T14:38:19.954Z,28.20
2022-09-24T14:40:55.180Z,28.00
2022-09-24T14:43:34.062Z,28.30
2022-09-24T14:46:02.263Z,28.20
2022-09-24T14:48:30.072Z,28.00
2022-09-24T14:50:58.617Z,28.90
2022-09-24T14:53:28.303Z,29.20
2022-09-24T14:56:02.985Z,28.90
2022-09-24T14:58:32.250Z,29.40
2022-09-24T15:01:22.959Z,29.90
2022-09-24T15:03:53.782Z,30.20
2022-09-24T15:06:21.906Z,30.50
2022-09-24T15:09:17.849Z,30.80
2022-09-24T15:11:49.281Z,31.10
2022-09-24T15:14:18.462Z,31.50
2022-09-24T15:16:47.288Z,31.10
2022-09-24T15:19:15.798Z,31.80
2022-09-24T15:21:42.985Z,32.60
2022-09-24T15:24:12.226Z,32.40
2022-09-24T15:26:41.158Z,32.90
2022-09-24T15:29:09.838Z,33.20
2022-09-24T15:31:41.559Z,33.60
2022-09-24T15:34:08.531Z,34.30
2022-09-24T15:36:35.469Z,34.70
2022-09-24T15:39:02.732Z,34.90
2022-09-24T15:41:29.741Z,35.00
2022-09-24T15:43:57.334Z,35.40
2022-09-24T15:46:24.737Z,35.90
2022-09-24T15:48:51.768Z,36.40
2022-09-24T15:51:19.971Z,36.60
2022-09-24T15:53:53.312Z,37.60
2022-09-24T15:56:21.607Z,37.50
2022-09-24T15:58:48.587Z,37.80
2022-09-24T16:01:19.054Z,38.40
2022-09-24T16:03:46.041Z,40.00
2022-09-24T16:06:14.685Z,39.10
2022-09-24T16:08:43.578Z,40.40
2022-09-24T16:11:12.225Z,41.30
2022-09-24T16:13:39.540Z,42.00
2022-09-24T16:16:07.382Z,42.40
2022-09-24T16:18:35.907Z,42.60
2022-09-24T16:21:05.366Z,42.90
2022-09-24T16:23:33.058Z,43.00
2022-09-24T16:26:01.488Z,42.60
2022-09-24T16:28:29.626Z,43.10
2022-09-24T16:31:01.311Z,44.20
2022-09-24T16:33:28.905Z,44.50
2022-09-24T16:36:09.785Z,45.10
2022-09-24T16:38:49.760Z,45.50
2022-09-24T16:41:18.819Z,46.40
2022-09-24T16:43:45.782Z,46.10
2022-09-24T16:46:17.805Z,46.70
2022-09-24T16:48:49.434Z,47.10
2022-09-24T16:51:20.025Z,47.10
2022-09-24T16:53:48.910Z,47.40
2022-09-24T16:56:19.296Z,47.70
2022-09-24T16:58:46.518Z,47.90
2022-09-24T17:01:16.187Z,48.20
2022-09-24T17:03:46.778Z,48.60
2022-09-24T17:06:28.149Z,48.70
2022-09-24T17:09:13.758Z,48.70
2022-09-24T17:11:41.002Z,49.00
2022-09-24T17:14:08.299Z,49.50
2022-09-24T17:16:35.480Z,49.80
2022-09-24T17:19:03.879Z,49.70
2022-09-24T17:21:30.830Z,50.20
2022-09-24T17:23:57.845Z,50.60
2022-09-24T17:26:25.481Z,50.90
2022-09-24T17:28:53.730Z,51.00
2022-09-24T17:31:21.831Z,51.20
2022-09-24T17:33:49.301Z,50.90
2022-09-24T17:36:18.865Z,51.00
2022-09-24T17:38:46.352Z,51.50
2022-09-24T17:41:13.639Z,51.80
2022-09-24T17:43:45.273Z,51.80
2022-09-24T17:46:14.674Z,51.80
2022-09-24T17:48:42.578Z,51.60
2022-09-24T17:51:13.224Z,51.70
2022-09-24T17:53:40.312Z,52.10
2022-09-24T17:56:07.649Z,52.40
2022-09-24T17:58:38.186Z,52.80
2022-09-24T18:01:05.977Z,53.00
2022-09-24T18:03:33.597Z,53.10
2022-09-24T18:06:05.659Z,53.20
2022-09-24T18:08:33.058Z,53.30
2022-09-24T18:11:05.576Z,53.00
2022-09-24T18:13:35.548Z,53.30
2022-09-24T18:16:05.738Z,53.50
2022-09-24T18:18:32.728Z,53.90
2022-09-24T18:21:00.682Z,54.10
2022-09-24T18:23:30.564Z,54.10
2022-09-24T18:26:10.757Z,54.30
2022-09-24T18:28:40.878Z,54.60
2022-09-24T18:31:09.828Z,54.60
2022-09-24T18:33:37.836Z,54.50
2022-09-24T18:36:10.528Z,54.50
2022-09-24T18:38:37.464Z,54.50
2022-09-24T18:41:11.632Z,54.50
2022-09-24T18:43:39.577Z,54.50
2022-09-24T18:46:07.386Z,54.70
2022-09-24T18:48:35.275Z,54.70
2022-09-24T18:51:02.229Z,54.70
2022-09-24T18:53:31.642Z,54.90
2022-09-24T18:55:58.993Z,55.00
2022-09-24T18:58:26.034Z,55.00
2022-09-24T19:00:58.607Z,55.00
2022-09-24T19:03:25.973Z,55.20
2022-09-24T19:05:53.691Z,55.50
2022-09-24T19:08:21.095Z,56.40
2022-09-24T19:10:48.222Z,57.20
2022-09-24T19:13:22.560Z,57.40
2022-09-24T19:15:53.182Z,57.10
2022-09-24T19:18:20.871Z,56.90
2022-09-24T19:20:50.712Z,57.70
2022-09-24T19:23:17.775Z,57.90
2022-09-24T19:25:44.764Z,57.50
2022-09-24T19:28:12.153Z,57.60
2022-09-24T19:30:40.439Z,57.60
2022-09-24T19:33:08.674Z,57.30
2022-09-24T19:35:39.209Z,57.20
2022-09-24T19:38:06.142Z,57.00
2022-09-24T19:40:33.129Z,57.20
2022-09-24T19:43:02.892Z,57.10
2022-09-24T19:45:31.416Z,56.90
2022-09-24T19:47:59.269Z,57.30
2022-09-24T19:50:26.212Z,57.60
2022-09-24T19:52:56.124Z,57.70
2022-09-24T19:55:28.489Z,57.80
2022-09-24T19:57:56.586Z,58.00
2022-09-24T20:00:25.274Z,58.00
2022-09-24T20:02:52.566Z,57.80
2022-09-24T20:05:21.124Z,58.10
2022-09-24T20:07:48.851Z,58.40
2022-09-24T20:10:15.939Z,58.70
2022-09-24T20:12:46.782Z,59.10
2022-09-24T20:15:13.838Z,59.20
2022-09-24T20:17:40.741Z,59.20
2022-09-24T20:20:07.866Z,59.50
2022-09-24T20:22:34.882Z,59.50
2022-09-24T20:25:02.213Z,59.50
2022-09-24T20:27:47.894Z,59.60
2022-09-24T20:30:14.955Z,59.40
2022-09-24T20:32:44.392Z,59.60
2022-09-24T20:35:11.866Z,60.00
2022-09-24T20:37:41.272Z,60.00
2022-09-24T20:40:08.967Z,60.30
2022-09-24T20:42:39.181Z,60.70
2022-09-24T20:45:07.408Z,61.20
2022-09-24T20:47:34.353Z,61.50
2022-09-24T20:50:01.306Z,61.50
2022-09-24T20:52:28.226Z,61.70
2022-09-24T20:54:55.090Z,62.00
2022-09-24T20:57:22.067Z,62.10
2022-09-24T20:59:49.234Z,62.60
2022-09-24T21:02:16.845Z,62.50
2022-09-24T21:04:44.588Z,62.30
2022-09-24T21:07:11.474Z,62.20
2022-09-24T21:09:39.124Z,62.20
2022-09-24T21:12:07.956Z,62.30
2022-09-24T21:14:36.128Z,62.50
2022-09-24T21:17:03.336Z,62.60
2022-09-24T21:19:32.580Z,62.70
2022-09-24T21:22:01.856Z,62.40
2022-09-24T21:24:31.688Z,62.20
2022-09-24T21:27:01.789Z,62.10
2022-09-24T21:29:28.859Z,61.90
2022-09-24T21:31:55.812Z,62.20
2022-09-24T21:34:23.278Z,62.50
2022-09-24T21:36:50.206Z,62.70
2022-09-24T21:39:18.652Z,63.10
2022-09-24T21:41:48.296Z,63.20
2022-09-24T21:44:15.865Z,62.80
2022-09-24T21:46:44.071Z,62.80
2022-09-24T21:49:11.275Z,62.60
2022-09-24T21:51:38.456Z,63.00
2022-09-24T21:54:06.347Z,63.80
2022-09-24T21:56:33.877Z,63.30
2022-09-24T21:59:01.049Z,63.60
2022-09-24T22:01:30.182Z,63.70
2022-09-24T22:04:00.981Z,63.60
2022-09-24T22:06:29.478Z,63.50
2022-09-24T22:08:58.101Z,63.70
2022-09-24T22:11:29.058Z,63.70
2022-09-24T22:13:57.911Z,63.60
2022-09-24T22:16:24.967Z,63.60
2022-09-24T22:18:52.177Z,63.90
2022-09-24T22:21:20.231Z,63.80
2022-09-24T22:23:47.844Z,63.90
2022-09-24T22:26:15.183Z,64.10
2022-09-24T22:28:43.478Z,64.10
2022-09-24T22:31:11.272Z,64.20
2022-09-24T22:33:56.620Z,64.30
2022-09-24T22:36:23.841Z,64.80
2022-09-24T22:38:55.063Z,65.00
2022-09-24T22:41:21.985Z,65.10
2022-09-24T22:43:49.646Z,65.00
2022-09-24T22:46:17.285Z,64.70
2022-09-24T22:48:44.241Z,64.70
2022-09-24T22:51:11.388Z,64.70
2022-09-24T22:53:40.182Z,64.70
2022-09-24T22:56:07.853Z,64.50
2022-09-24T22:58:35.095Z,65.60
2022-09-24T23:01:05.824Z,65.20
2022-09-24T23:03:32.798Z,65.70
2022-09-24T23:06:00.270Z,66.00
2022-09-24T23:08:33.409Z,66.40
2022-09-24T23:11:09.435Z,66.40
2022-09-24T23:13:37.114Z,66.40
2022-09-24T23:16:12.635Z,66.30
2022-09-24T23:18:39.948Z,66.50
2022-09-24T23:21:10.966Z,66.90
2022-09-24T23:23:37.963Z,67.30
2022-09-24T23:26:05.602Z,67.10
2022-09-24T23:28:32.593Z,67.40
2022-09-24T23:30:59.978Z,67.40
2022-09-24T23:33:27.001Z,67.50
2022-09-24T23:35:54.578Z,67.80
2022-09-24T23:38:21.460Z,68.10
2022-09-24T23:40:51.366Z,68.10
2022-09-24T23:43:18.588Z,68.00
2022-09-24T23:45:47.749Z,68.10
2022-09-24T23:48:15.088Z,68.20
2022-09-24T23:50:42.774Z,68.50
2022-09-24T23:53:09.707Z,68.70
2022-09-24T23:55:36.551Z,69.10
2022-09-24T23:58:06.611Z,69.60
